• Join FlightAware (Why Join?)
  • Login
  • US Flag 
05:30AM EDT


 

Airport Tracker/Info


-or-


 

Live Flight TrackerFlight Track Log ✈ USC105 ✈ 17-Apr-2013 ✈ KYIP - KDPA

Flight Track Log - Related Links

Times and Time Zones

All times are in EDT time to prevent confusion due to time zone crossing. See the USC105 flight status page for this flight to view local times or setup timezone preferences in your user account.

Time Position Orientation Groundspeed Altitude Reporting Facility
EDT Latitude Longitude Course Direction KTS MPH feet Rate Location/Type
12:27AM 42.1667 -84.4833 270° West 231 266 7,100  Level Chicago TRACON
12:28AM 42.2600 -83.5208 82° East 129 148 1,600 -6,660 Descending FAA TRACON SMA TRACON (SMA)
12:28AM 42.2639 -83.5372 288° West 151 174 1,900 900 Climbing FAA TRACON SMA TRACON (SMA)
12:28AM 42.2656 -83.5542 278° West 147 169 2,200 1,020 Climbing FAA TRACON SMA TRACON (SMA)
12:29AM 42.2650 -83.5742 268° West 136 157 2,600 1,200 Climbing FAA TRACON SMA TRACON (SMA)
12:29AM 42.2639 -83.5892 264° West 125 144 3,000 1,020 Climbing FAA TRACON SMA TRACON (SMA)
12:29AM 42.2625 -83.6031 262° West 123 142 3,300 1,200 Climbing FAA TRACON SMA TRACON (SMA)
12:30AM 42.2619 -83.6197 267° West 115 132 3,800 1,260 Climbing FAA TRACON SMA TRACON (SMA)
12:30AM 42.2608 -83.6314 263° West 106 122 4,200 1,020 Climbing FAA TRACON SMA TRACON (SMA)
12:30AM 42.2600 -83.6422 264° West 97 112 4,500 1,020 Climbing FAA TRACON SMA TRACON (SMA)
12:31AM 42.2589 -83.6569 264° West 100 115 4,900 900 Climbing FAA TRACON SMA TRACON (SMA)
12:31AM 42.2581 -83.6686 264° West 101 116 5,100 900 Climbing FAA TRACON SMA TRACON (SMA)
12:31AM 42.2572 -83.6808 265° West 105 121 5,500 1,140 Climbing FAA TRACON SMA TRACON (SMA)
12:32AM 42.2564 -83.6939 265° West 88 101 5,900 720 Climbing FAA TRACON SMA TRACON (SMA)
12:32AM 42.2558 -83.7056 266° West 100 115 6,000 120 Climbing FAA TRACON SMA TRACON (SMA)
12:32AM 42.2547 -83.7181 263° West 107 123 6,000  Level FAA TRACON SMA TRACON (SMA)
12:33AM 42.2167 -83.8317 270° West  Level FlightAware Approximate
12:33AM 42.2528 -83.7364 262° West 126 145 6,000  Level FAA TRACON SMA TRACON (SMA)
12:33AM 42.2519 -83.7525 266° West 137 158 6,000  Level FAA TRACON SMA TRACON (SMA)
12:33AM 42.2514 -83.7683 267° West 137 158 6,000  Level FAA TRACON SMA TRACON (SMA)
12:34AM 42.2503 -83.7886 266° West 139 160 6,000  Level FAA TRACON SMA TRACON (SMA)
12:34AM 42.2483 -83.8064 262° West 140 161 6,000 -120 Level Cleveland Center
12:35AM 42.2467 -83.8622 268° West 147 169 5,900 -60 Descending Cleveland Center
12:36AM 42.2431 -83.9183 265° West 152 175 5,900  Level Cleveland Center
12:37AM 42.2394 -83.9686 264° West 151 174 5,900  Level Cleveland Center
12:39AM 42.2336 -84.0683 266° West 153 176 5,900  Level FAA TRACON SMA TRACON (SMA)
12:39AM 42.2328 -84.0861 266° West 153 176 5,900  Level FAA TRACON SMA TRACON (SMA)
12:39AM 42.2317 -84.1039 265° West 154 177 5,900 120 Level FAA TRACON SMA TRACON (SMA)
12:40AM 42.2300 -84.1258 264° West 153 176 6,000 120 Climbing FAA TRACON SMA TRACON (SMA)
12:40AM 42.2294 -84.1431 268° West 151 174 6,000  Level FAA TRACON SMA TRACON (SMA)
12:40AM 42.2283 -84.1603 265° West 150 173 6,000  Level FAA TRACON SMA TRACON (SMA)
12:41AM 42.2275 -84.1775 266° West 150 173 6,000  Level FAA TRACON SMA TRACON (SMA)
12:41AM 42.2261 -84.1994 265° West 151 174 6,000  Level FAA TRACON SMA TRACON (SMA)
12:41AM 42.2247 -84.2167 264° West 151 174 6,000  Level FAA TRACON SMA TRACON (SMA)
12:42AM 42.2236 -84.2383 266° West 150 173 6,000  Level FAA TRACON SMA TRACON (SMA)
12:42AM 42.2228 -84.2556 266° West 149 171 6,000  Level FAA TRACON SMA TRACON (SMA)
12:42AM 42.2219 -84.2728 266° West 150 173 6,000  Level FAA TRACON SMA TRACON (SMA)
12:43AM 42.2206 -84.2944 265° West 150 173 6,000  Level FAA TRACON SMA TRACON (SMA)
12:43AM 42.2189 -84.3114 262° West 150 173 6,000  Level FAA TRACON SMA TRACON (SMA)
12:43AM 42.2172 -84.3283 262° West 149 171 6,000  Level FAA TRACON SMA TRACON (SMA)
12:44AM 42.2161 -84.3456 265° West 148 170 6,000  Level FAA TRACON SMA TRACON (SMA)
12:44AM 42.2153 -84.3667 267° West 147 169 6,000  Level FAA TRACON SMA TRACON (SMA)
12:44AM 42.2147 -84.3836 267° West 147 169 6,000  Level FAA TRACON SMA TRACON (SMA)
12:45AM 42.2139 -84.4008 266° West 148 170 6,000  Level FAA TRACON SMA TRACON (SMA)
12:45AM 42.2128 -84.4219 266° West 147 169 6,000  Level FAA TRACON SMA TRACON (SMA)
12:45AM 42.2117 -84.4386 265° West 146 168 6,000  Level FAA TRACON SMA TRACON (SMA)
12:46AM 42.2108 -84.4556 266° West 146 168 6,000  Level FAA TRACON SMA TRACON (SMA)
12:46AM 42.2100 -84.4764 267° West 146 168 6,000  Level FAA TRACON SMA TRACON (SMA)
12:46AM 42.2083 -84.4933 262° West 146 168 6,000  Level FAA TRACON SMA TRACON (SMA)
12:47AM 42.2064 -84.5100 261° West 147 169 6,000  Level FAA TRACON SMA TRACON (SMA)
12:47AM 42.2047 -84.5319 264° West 150 173 6,000  Level FAA TRACON SMA TRACON (SMA)
12:47AM 42.2039 -84.5450 265° West 151 174 6,000  Level FAA TRACON SMA TRACON (SMA)
12:48AM 42.2039 -84.5450 180° South 151 174 6,000 -120 Level FAA TRACON SMA TRACON (SMA)
12:49AM 42.2103 -84.6592 274° West 158 182 5,800 -120 Descending Chicago Center
12:50AM 42.2117 -84.7178 272° West 158 182 5,800  Level Chicago Center
12:51AM 42.2144 -84.7783 274° West 161 185 5,800  Level Chicago Center
12:52AM 42.2100 -84.8389 264° West 162 186 5,800  Level Chicago Center
12:53AM 42.1975 -84.8961 254° West 160 184 5,800  Level Chicago Center
12:54AM 42.1869 -84.9533 256° West 160 184 5,800  Level Chicago Center
12:55AM 42.1892 -85.0136 273° West 165 190 5,800 -600 Level Chicago Center
12:56AM 42.1792 -85.0797 258° West 179 206 4,600 -780 Descending Chicago Center
12:57AM 42.1739 -85.1536 265° West 197 227 4,300 -360 Descending Chicago Center
12:58AM 42.1664 -85.2228 262° West 192 221 3,900 -240 Descending Chicago Center
12:59AM 42.1511 -85.2861 252° West 184 212 3,900  Level Chicago Center
01:00AM 42.1261 -85.3403 238° Southwest 174 200 3,900  Level Chicago Center
01:01AM 42.1067 -85.3972 245° Southwest 171 197 3,900  Level Chicago Center
01:02AM 42.0928 -85.4714 256° West 171 197 4,000  Climbing Chicago Center
01:03AM 42.0817 -85.5300 256° West 166 191 4,000  Level Chicago Center
01:04AM 42.0697 -85.5914 255° West 168 193 4,000  Level Chicago Center
01:05AM 42.0603 -85.6478 257° West 162 186 4,000  Level Chicago Center
01:07AM 42.0614 -85.7050 272° West 155 178 4,000  Level Chicago Center
01:08AM 42.0650 -85.7644 275° West 159 183 4,000  Level Chicago Center
01:09AM 42.0675 -85.8278 273° West 165 190 4,000  Level Chicago Center
01:10AM 42.0689 -85.8894 272° West 168 193 4,000 60 Level Chicago Center
01:11AM 42.0728 -85.9503 275° West 165 190 4,200  Climbing Chicago Center
01:12AM 42.0778 -86.0042 277° West 153 176 4,000 -180 Descending Chicago Center
01:13AM 42.0800 -86.0511 274° West 135 155 3,900  Descending Chicago Center
01:14AM 42.0906 -86.1019 286° West 138 159 4,000  Climbing Chicago Center
01:15AM 42.1097 -86.1506 298° West 145 167 4,000  Level Chicago Center
01:16AM 42.1178 -86.2044 281° West 146 168 4,100  Climbing Chicago Center
01:17AM 42.1186 -86.2628 271° West 152 175 4,000 -60 Descending Chicago Center
01:18AM 42.1192 -86.3286 271° West 168 193 4,000  Level Chicago Center
01:19AM 42.1208 -86.3867 272° West 162 186 4,000  Level Chicago Center
01:20AM 42.1233 -86.4542 273° West 153 176 4,000  Level Chicago Center
01:21AM 42.1217 -86.5111 268° West 153 176 4,000  Level Chicago Center
01:22AM 42.1228 -86.5681 272° West 152 175 4,000  Level Chicago Center
01:23AM 42.1231 -86.6306 270° West 162 186 4,000  Level Chicago Center
01:24AM 42.1236 -86.6931 271° West 166 191 4,000  Level Chicago Center
01:25AM 42.1261 -86.7547 273° West 167 192 4,000  Level Chicago Center
01:26AM 42.1267 -86.8131 271° West 158 182 4,000  Level Chicago Center
01:27AM 42.1353 -86.8697 282° West 155 178 4,000  Level Chicago Center
01:28AM 42.1406 -86.9242 277° West 149 171 4,100  Climbing Chicago Center
01:29AM 42.1486 -86.9808 281° West 153 176 4,000 -60 Descending Chicago Center
01:30AM 42.1447 -87.0344 264° West 154 177 4,000 960 Level Chicago Center
01:32AM 42.1667 -84.4833 88° East 231 266 7,100 780 Climbing Chicago TRACON
01:34AM 42.1667 -84.4833 217° Southwest 231 266 7,100  Level Chicago TRACON
01:37AM 42.1667 -84.4833 217° Southwest 231 266 7,100  Level Chicago TRACON
01:39AM 42.1614 -84.5839 266° West  Level Estimated
01:40AM 42.1667 -84.4833 266° West 231 266 7,100  Level Chicago TRACON
01:42AM 42.1667 -84.4833 217° Southwest 231 266 7,100  Level Chicago TRACON
01:45AM 42.1667 -84.4833 217° Southwest 231 266 7,100  Level Chicago TRACON
01:48AM 42.1667 -84.4833 217° Southwest 231 266 7,100  Level Chicago TRACON
01:50AM 42.1667 -84.4833 217° Southwest 231 266 7,100  Level Chicago TRACON
01:52AM 42.1667 -84.4833 217° Southwest 231 266 7,100  Level Chicago TRACON
01:54AM 42.1667 -84.4833 217° Southwest 231 266 7,100  Level Chicago TRACON